Zenith Spirit — C6WZ7 — position and weather

sailwx.info

Track history (hours):
 
Tides and Currents Weather Stations Pressure Air Temp Water Temp Dewpoint Dewpoint Depression Visibility Wind Speed Wind Dir Waves Ship Positions

Zenith Spirit

Last reported at 2017-Oct-10 23:59 UTC. Time now 2017-Oct-17 20:24 UTC.
Position N 25°36' W 079°32'.

Length 274 m; draft 9 m.

Type: Tanker. MMSI: 308329000.

Date/timePositionNaut miles runAvg speedWind from/ knotsBaromVisibWave heightAir tempDewpointWater temp
2017-Oct-10 23:59N 25°36' W 079°32'5 8.0
2017-Oct-10 23:25N 25°41' W 079°31'3 8.1
2017-Oct-10 23:00N 25°44' W 079°31'4 8.1
2017-Oct-10 22:30N 25°48' W 079°30'5 8.2
2017-Oct-10 21:55N 25°53' W 079°30'11 8.4
2017-Oct-10 20:34N 26°04' W 079°27'1 8.4
2017-Oct-10 20:30N 26°05' W 079°27'4 8.4
2017-Oct-10 20:00N 26°09' W 079°26'5 8.6
2017-Oct-10 19:29N 26°13' W 079°25'  
2017-Oct-07 05:01N 38°22' W 074°29'012.1
2017-Oct-07 05:00N 38°22' W 074°29'711.7
2017-Oct-07 04:27N 38°24' W 074°37'511.5
2017-Oct-07 04:00N 38°26' W 074°43'611.1
2017-Oct-07 03:30N 38°31' W 074°47'611.1
2017-Oct-07 03:00N 38°35' W 074°51'611.0
2017-Oct-07 02:30N 38°40' W 074°55'510.9
2017-Oct-07 02:00N 38°44' W 074°60'10 9.9
2017-Oct-07 01:01N 38°53' W 075°06'311.1
2017-Oct-07 00:47N 38°55' W 075°06'411.8
2017-Oct-07 00:25N 38°59' W 075°08'511.8
2017-Oct-07 00:00N 39°04' W 075°10'611.7
2017-Oct-06 23:30N 39°09' W 075°14'612.4
2017-Oct-06 23:00N 39°14' W 075°18'713.9
2017-Oct-06 22:30N 39°19' W 075°24'714.9
2017-Oct-06 22:00N 39°25' W 075°31'713.3
2017-Oct-06 21:30N 39°31' W 075°33'713.0
2017-Oct-06 21:00N 39°38' W 075°35'612.4
2017-Oct-06 20:31N 39°43' W 075°30'611.1
2017-Oct-06 20:01N 39°48' W 075°27'4 8.8
2017-Oct-06 19:31N 39°50' W 075°22'5 9.5
2017-Oct-06 19:00N 39°51' W 075°16'2 4.8
2017-Oct-06 18:31N 39°52' W 075°13'0 0.0
2017-Oct-06 18:00N 39°52' W 075°13'0 0.0
2017-Oct-05 19:33N 39°52' W 075°13'0 0.0
2017-Oct-05 15:23N 39°52' W 075°13'0 0.2
2017-Oct-05 15:01N 39°52' W 075°13'1 2.2
2017-Oct-05 14:30N 39°51' W 075°14'3 6.8
2017-Oct-05 14:00N 39°51' W 075°19'5 9.7
2017-Oct-05 13:31N 39°49' W 075°24'510.2
2017-Oct-05 13:01N 39°45' W 075°29'510.1
2017-Oct-05 12:31N 39°41' W 075°31'5 9.7
2017-Oct-05 12:00N 39°36' W 075°34'510.2
2017-Oct-05 11:31N 39°31' W 075°33'5 9.6
2017-Oct-05 11:00N 39°26' W 075°33'510.3
2017-Oct-05 10:30N 39°23' W 075°28'510.1
2017-Oct-05 10:00N 39°19' W 075°24'510.1
2017-Oct-05 09:30N 39°15' W 075°19'5 9.9
2017-Oct-05 09:00N 39°11' W 075°16'510.4
2017-Oct-05 08:30N 39°06' W 075°12'5 9.9
2017-Oct-05 08:00N 39°02' W 075°09'510.7
2017-Oct-05 07:30N 38°57' W 075°07'5 9.2
2017-Oct-05 07:01N 38°53' W 075°05'4 8.8
2017-Oct-05 06:30N 38°55' W 075°10'1 0.9
2017-Oct-05 05:57N 38°56' W 075°10'0 0.1
2017-Oct-05 05:30N 38°56' W 075°10'0 0.0
2017-Oct-05 05:00N 38°56' W 075°10'0 0.0
2017-Oct-05 04:30N 38°56' W 075°10'0 0.1
2017-Oct-05 04:00N 38°56' W 075°10'0 0.1
2017-Oct-05 03:18N 38°56' W 075°10'0 0.1
2017-Oct-05 03:00N 38°56' W 075°10'0 0.1
2017-Oct-05 02:30N 38°56' W 075°10'0 0.1
2017-Oct-05 01:57N 38°56' W 075°10'0 0.1
2017-Oct-05 01:30N 38°56' W 075°10'0 0.1
2017-Oct-05 01:00N 38°56' W 075°10'0 0.0
2017-Oct-05 00:27N 38°56' W 075°10'0 0.0
2017-Oct-04 23:33N 38°56' W 075°10'0 0.0
2017-Oct-04 23:18N 38°56' W 075°10'0 0.0
2017-Oct-04 21:39N 38°56' W 075°10'0 0.0
2017-Oct-04 21:27N 38°56' W 075°10'0 0.0
2017-Oct-04 20:57N 38°56' W 075°10'0 0.0
2017-Oct-04 20:27N 38°56' W 075°10'0 0.1
2017-Oct-04 20:00N 38°56' W 075°10'0 0.4
2017-Oct-04 19:24N 38°56' W 075°10'0 0.2
2017-Oct-04 19:00N 38°56' W 075°10'0 0.1
2017-Oct-04 18:30N 38°56' W 075°10'0 0.1
2017-Oct-04 17:57N 38°56' W 075°10'0 0.0
2017-Oct-04 17:30N 38°56' W 075°10'0 0.0
2017-Oct-04 17:00N 38°56' W 075°10'0 0.0
2017-Oct-04 16:27N 38°56' W 075°10'0 0.0
2017-Oct-04 15:54N 38°56' W 075°10'0 0.1
2017-Oct-04 15:30N 38°56' W 075°10'0 0.0
2017-Oct-04 15:00N 38°56' W 075°10'0 0.2
2017-Oct-04 14:27N 38°56' W 075°10'0 0.2
2017-Oct-04 14:00N 38°56' W 075°10'0 0.2
2017-Oct-04 13:30N 38°56' W 075°10'0 0.1
2017-Oct-04 12:42N 38°56' W 075°10'0 0.0
2017-Oct-04 11:51N 38°56' W 075°10'0 0.0
2017-Oct-04 09:36N 38°56' W 075°10'0 0.1
2017-Oct-04 09:21N 38°56' W 075°10'0 0.0
2017-Oct-04 09:00N 38°56' W 075°10'0 0.3
2017-Oct-04 08:30N 38°56' W 075°10'0 0.3
2017-Oct-04 07:57N 38°56' W 075°10'0 0.1
2017-Oct-04 07:30N 38°56' W 075°10'0 0.0
2017-Oct-04 06:39N 38°56' W 075°10'0 0.1
2017-Oct-04 06:24N 38°56' W 075°10'0 0.0
2017-Oct-04 05:54N 38°56' W 075°10'0 0.0
2017-Oct-04 05:27N 38°56' W 075°10'0 0.0
2017-Oct-04 04:57N 38°56' W 075°10'0 0.0
2017-Oct-04 04:18N 38°56' W 075°10'0 0.1
2017-Oct-04 03:59N 38°56' W 075°10'0 0.0
2017-Oct-04 03:27N 38°56' W 075°10'0 0.1
2017-Oct-04 02:57N 38°56' W 075°10'0 0.1
2017-Oct-04 00:30N 38°56' W 075°10'0 0.0
2017-Oct-03 23:51N 38°56' W 075°10'0 0.1
2017-Oct-03 23:30N 38°56' W 075°10'0 0.0
2017-Oct-03 22:53N 38°56' W 075°10'0 0.1
2017-Oct-03 22:18N 38°56' W 075°10'0 0.0
2017-Oct-03 21:57N 38°56' W 075°10'0 0.0
2017-Oct-03 21:27N 38°56' W 075°10'0 0.0
2017-Oct-03 19:18N 38°56' W 075°10'0 0.3
2017-Oct-03 19:00N 38°56' W 075°10'0 0.2
2017-Oct-03 18:30N 38°56' W 075°10'0 0.1
2017-Oct-03 18:00N 38°56' W 075°10'0 0.0
2017-Oct-03 17:30N 38°56' W 075°10'0 0.0
2017-Oct-03 16:45N 38°56' W 075°10'0 0.0
2017-Oct-03 16:30N 38°56' W 075°10'0 0.0
2017-Oct-03 15:54N 38°56' W 075°10'0 0.0
2017-Oct-03 15:24N 38°56' W 075°10'0 0.1
2017-Oct-03 14:59N 38°56' W 075°10'0 0.3
2017-Oct-03 13:59N 38°56' W 075°10'0 0.0
2017-Oct-03 13:29N 38°56' W 075°10'0 0.0
2017-Oct-03 12:56N 38°56' W 075°10'0 0.0
2017-Oct-03 12:29N 38°56' W 075°10'0 0.0
2017-Oct-03 11:59N 38°56' W 075°10'0 0.0
2017-Oct-03 11:29N 38°56' W 075°10'0 0.0
2017-Oct-03 10:57N 38°56' W 075°10'0 0.0
2017-Oct-03 10:02N 38°56' W 075°10'0 0.0
2017-Oct-03 09:59N 38°56' W 075°10'0 0.0
2017-Oct-03 09:11N 38°56' W 075°10'0 0.0
2017-Oct-03 08:45N 38°56' W 075°10'0 0.0
2017-Oct-03 08:27N 38°56' W 075°10'0 0.1
2017-Oct-03 08:00N 38°56' W 075°10'0 0.1
2017-Oct-03 07:30N 38°56' W 075°10'0 0.2
2017-Oct-03 06:59N 38°56' W 075°10'0 0.2
2017-Oct-03 06:29N 38°56' W 075°10'0 0.1
2017-Oct-03 05:56N 38°56' W 075°10'0 0.1
2017-Oct-03 05:29N 38°56' W 075°10'0 0.0
2017-Oct-03 04:38N 38°56' W 075°10'0 0.0
2017-Oct-03 04:29N 38°56' W 075°10'0 0.0
2017-Oct-03 03:59N 38°56' W 075°10'0 0.0
2017-Oct-03 03:29N 38°56' W 075°10'0 0.0
2017-Oct-03 02:53N 38°56' W 075°10'0 0.0
2017-Oct-03 02:29N 38°56' W 075°10'0 0.1
2017-Oct-03 01:59N 38°56' W 075°10'0 0.3
2017-Oct-03 01:23N 38°56' W 075°10'0 0.0
2017-Oct-02 20:53N 38°56' W 075°10'0 0.0
2017-Oct-02 20:29N 38°56' W 075°10'0 0.2
2017-Oct-02 19:29N 38°56' W 075°10'0 0.4
2017-Oct-02 18:56N 38°56' W 075°10'0 0.1
2017-Oct-02 18:29N 38°56' W 075°10'0 0.1
2017-Oct-02 17:53N 38°56' W 075°10'0 0.0
2017-Oct-02 17:29N 38°56' W 075°10'0 0.0
2017-Oct-02 16:53N 38°56' W 075°10'0 0.0
2017-Oct-02 16:17N 38°56' W 075°10'0 0.0
2017-Oct-02 15:59N 38°56' W 075°10'0 0.0
2017-Oct-02 15:29N 38°56' W 075°10'0 0.0
2017-Oct-02 14:59N 38°56' W 075°10'0 0.0
2017-Oct-02 14:29N 38°56' W 075°10'0 0.0
2017-Oct-02 13:59N 38°56' W 075°10'0 0.0
2017-Oct-02 13:23N 38°56' W 075°10'0 0.0
2017-Oct-02 12:59N 38°56' W 075°10'0 0.1
2017-Oct-02 12:29N 38°56' W 075°10'0 0.2
2017-Oct-02 11:59N 38°56' W 075°10'0 0.2
2017-Oct-02 11:29N 38°56' W 075°10'0 0.1
2017-Oct-02 10:59N 38°56' W 075°10'0 0.1
2017-Oct-02 10:05N 38°56' W 075°10'0 0.0
2017-Oct-02 09:59N 38°56' W 075°10'0 0.0
2017-Oct-02 09:29N 38°56' W 075°10'0 0.0
2017-Oct-02 08:56N 38°56' W 075°10'0 0.0
2017-Oct-02 08:26N 38°56' W 075°10'0 0.1
2017-Oct-02 07:53N 38°56' W 075°10'0 0.3
2017-Oct-02 07:29N 38°56' W 075°10'0 0.3
2017-Oct-02 06:59N 38°56' W 075°10'0 0.0
2017-Oct-02 06:29N 38°56' W 075°10'0 0.1
2017-Oct-02 05:56N 38°56' W 075°10'0 0.1
2017-Oct-02 05:26N 38°56' W 075°10'0 0.0
2017-Oct-02 04:59N 38°56' W 075°10'0 0.0
2017-Oct-02 04:29N 38°56' W 075°10'0 0.0
2017-Oct-02 03:59N 38°56' W 075°10'0 0.0
2017-Oct-02 03:26N 38°56' W 075°10'0 0.0
2017-Oct-02 02:59N 38°56' W 075°10'0 0.1
2017-Oct-02 02:29N 38°56' W 075°10'0 0.0
2017-Oct-02 01:59N 38°56' W 075°10'0 0.1
2017-Oct-02 01:29N 38°56' W 075°10'0 0.0
2017-Oct-02 00:59N 38°56' W 075°10'0 0.0
2017-Oct-01 18:47N 38°56' W 075°10'0 0.3
2017-Oct-01 18:14N 38°56' W 075°10'0 0.3
2017-Oct-01 17:59N 38°56' W 075°10'0 0.1
2017-Oct-01 17:17N 38°56' W 075°10'0 0.0
2017-Oct-01 16:47N 38°56' W 075°10'0 0.0
2017-Oct-01 16:26N 38°56' W 075°10'0 0.0
2017-Oct-01 15:59N 38°56' W 075°10'0 0.0
2017-Oct-01 15:02N 38°56' W 075°10'0 0.1
2017-Oct-01 14:59N 38°56' W 075°10'0 0.0
2017-Oct-01 14:29N 38°56' W 075°10'0 0.0
2017-Oct-01 13:56N 38°56' W 075°10'0 0.1
2017-Oct-01 13:29N 38°56' W 075°10'0 0.0
2017-Oct-01 12:56N 38°56' W 075°10'0 0.0
2017-Oct-01 12:29N 38°56' W 075°10'0 0.1
2017-Oct-01 11:59N 38°56' W 075°10'0 0.1
2017-Oct-01 11:29N 38°56' W 075°10'0 0.2
2017-Oct-01 10:56N 38°56' W 075°10'0 0.2
2017-Oct-01 10:29N 38°56' W 075°10'0 0.2
2017-Oct-01 09:59N 38°56' W 075°10'0 0.0
2017-Oct-01 09:29N 38°56' W 075°10'0 0.1
2017-Oct-01 08:59N 38°56' W 075°10'0 0.1
2017-Oct-01 08:29N 38°56' W 075°10'0 0.1
2017-Oct-01 07:56N 38°56' W 075°10'0 0.0
2017-Oct-01 07:29N 38°56' W 075°10'0 0.1
2017-Oct-01 06:20N 38°56' W 075°10'0 0.2
2017-Oct-01 05:59N 38°56' W 075°10'0 0.1
2017-Oct-01 05:29N 38°56' W 075°10'0 0.1
2017-Oct-01 04:23N 38°56' W 075°10'0 0.0
2017-Oct-01 03:35N 38°56' W 075°10'0 0.0
2017-Oct-01 03:29N 38°56' W 075°10'0 0.1
2017-Oct-01 02:59N 38°56' W 075°10'  
Track history (hours):
 
Tides and Currents Weather Stations Pressure Air Temp Water Temp Dewpoint Dewpoint Depression Visibility Wind Speed Wind Dir Waves Ship Positions

Zenith Spirit

Last reported at 2017-Oct-10 23:59 UTC. Time now 2017-Oct-17 20:24 UTC.
Position N 25°36' W 079°32'.

Length 274 m; draft 9 m.

Type: Tanker. MMSI: 308329000.

Date/timePositionNaut miles runAvg speedWind from/ knotsBaromVisibWave heightAir tempDewpointWater temp
2017-Oct-10 23:59N 25°36' W 079°32'5 8.0
2017-Oct-10 23:25N 25°41' W 079°31'3 8.1
2017-Oct-10 23:00N 25°44' W 079°31'4 8.1
2017-Oct-10 22:30N 25°48' W 079°30'5 8.2
2017-Oct-10 21:55N 25°53' W 079°30'11 8.4
2017-Oct-10 20:34N 26°04' W 079°27'1 8.4
2017-Oct-10 20:30N 26°05' W 079°27'4 8.4
2017-Oct-10 20:00N 26°09' W 079°26'5 8.6
2017-Oct-10 19:29N 26°13' W 079°25'  
2017-Oct-07 05:01N 38°22' W 074°29'012.1
2017-Oct-07 05:00N 38°22' W 074°29'711.7
2017-Oct-07 04:27N 38°24' W 074°37'511.5
2017-Oct-07 04:00N 38°26' W 074°43'611.1
2017-Oct-07 03:30N 38°31' W 074°47'611.1
2017-Oct-07 03:00N 38°35' W 074°51'611.0
2017-Oct-07 02:30N 38°40' W 074°55'510.9
2017-Oct-07 02:00N 38°44' W 074°60'10 9.9
2017-Oct-07 01:01N 38°53' W 075°06'311.1
2017-Oct-07 00:47N 38°55' W 075°06'411.8
2017-Oct-07 00:25N 38°59' W 075°08'511.8
2017-Oct-07 00:00N 39°04' W 075°10'611.7
2017-Oct-06 23:30N 39°09' W 075°14'612.4
2017-Oct-06 23:00N 39°14' W 075°18'713.9
2017-Oct-06 22:30N 39°19' W 075°24'714.9
2017-Oct-06 22:00N 39°25' W 075°31'713.3
2017-Oct-06 21:30N 39°31' W 075°33'713.0
2017-Oct-06 21:00N 39°38' W 075°35'612.4
2017-Oct-06 20:31N 39°43' W 075°30'611.1
2017-Oct-06 20:01N 39°48' W 075°27'4 8.8
2017-Oct-06 19:31N 39°50' W 075°22'5 9.5
2017-Oct-06 19:00N 39°51' W 075°16'2 4.8
2017-Oct-06 18:31N 39°52' W 075°13'0 0.0
2017-Oct-06 18:00N 39°52' W 075°13'0 0.0
2017-Oct-05 19:33N 39°52' W 075°13'0 0.0
2017-Oct-05 15:23N 39°52' W 075°13'0 0.2
2017-Oct-05 15:01N 39°52' W 075°13'1 2.2
2017-Oct-05 14:30N 39°51' W 075°14'3 6.8
2017-Oct-05 14:00N 39°51' W 075°19'5 9.7
2017-Oct-05 13:31N 39°49' W 075°24'510.2
2017-Oct-05 13:01N 39°45' W 075°29'510.1
2017-Oct-05 12:31N 39°41' W 075°31'5 9.7
2017-Oct-05 12:00N 39°36' W 075°34'510.2
2017-Oct-05 11:31N 39°31' W 075°33'5 9.6
2017-Oct-05 11:00N 39°26' W 075°33'510.3
2017-Oct-05 10:30N 39°23' W 075°28'510.1
2017-Oct-05 10:00N 39°19' W 075°24'510.1
2017-Oct-05 09:30N 39°15' W 075°19'5 9.9
2017-Oct-05 09:00N 39°11' W 075°16'510.4
2017-Oct-05 08:30N 39°06' W 075°12'5 9.9
2017-Oct-05 08:00N 39°02' W 075°09'510.7
2017-Oct-05 07:30N 38°57' W 075°07'5 9.2
2017-Oct-05 07:01N 38°53' W 075°05'4 8.8
2017-Oct-05 06:30N 38°55' W 075°10'1 0.9
2017-Oct-05 05:57N 38°56' W 075°10'0 0.1
2017-Oct-05 05:30N 38°56' W 075°10'0 0.0
2017-Oct-05 05:00N 38°56' W 075°10'0 0.0
2017-Oct-05 04:30N 38°56' W 075°10'0 0.1
2017-Oct-05 04:00N 38°56' W 075°10'0 0.1
2017-Oct-05 03:18N 38°56' W 075°10'0 0.1
2017-Oct-05 03:00N 38°56' W 075°10'0 0.1
2017-Oct-05 02:30N 38°56' W 075°10'0 0.1
2017-Oct-05 01:57N 38°56' W 075°10'0 0.1
2017-Oct-05 01:30N 38°56' W 075°10'0 0.1
2017-Oct-05 01:00N 38°56' W 075°10'0 0.0
2017-Oct-05 00:27N 38°56' W 075°10'0 0.0
2017-Oct-04 23:33N 38°56' W 075°10'0 0.0
2017-Oct-04 23:18N 38°56' W 075°10'0 0.0
2017-Oct-04 21:39N 38°56' W 075°10'0 0.0
2017-Oct-04 21:27N 38°56' W 075°10'0 0.0
2017-Oct-04 20:57N 38°56' W 075°10'0 0.0
2017-Oct-04 20:27N 38°56' W 075°10'0 0.1
2017-Oct-04 20:00N 38°56' W 075°10'0 0.4
2017-Oct-04 19:24N 38°56' W 075°10'0 0.2
2017-Oct-04 19:00N 38°56' W 075°10'0 0.1
2017-Oct-04 18:30N 38°56' W 075°10'0 0.1
2017-Oct-04 17:57N 38°56' W 075°10'0 0.0
2017-Oct-04 17:30N 38°56' W 075°10'0 0.0
2017-Oct-04 17:00N 38°56' W 075°10'0 0.0
2017-Oct-04 16:27N 38°56' W 075°10'0 0.0
2017-Oct-04 15:54N 38°56' W 075°10'0 0.1
2017-Oct-04 15:30N 38°56' W 075°10'0 0.0
2017-Oct-04 15:00N 38°56' W 075°10'0 0.2
2017-Oct-04 14:27N 38°56' W 075°10'0 0.2
2017-Oct-04 14:00N 38°56' W 075°10'0 0.2
2017-Oct-04 13:30N 38°56' W 075°10'0 0.1
2017-Oct-04 12:42N 38°56' W 075°10'0 0.0
2017-Oct-04 11:51N 38°56' W 075°10'0 0.0
2017-Oct-04 09:36N 38°56' W 075°10'0 0.1
2017-Oct-04 09:21N 38°56' W 075°10'0 0.0
2017-Oct-04 09:00N 38°56' W 075°10'0 0.3
2017-Oct-04 08:30N 38°56' W 075°10'0 0.3
2017-Oct-04 07:57N 38°56' W 075°10'0 0.1
2017-Oct-04 07:30N 38°56' W 075°10'0 0.0
2017-Oct-04 06:39N 38°56' W 075°10'0 0.1
2017-Oct-04 06:24N 38°56' W 075°10'0 0.0
2017-Oct-04 05:54N 38°56' W 075°10'0 0.0
2017-Oct-04 05:27N 38°56' W 075°10'0 0.0
2017-Oct-04 04:57N 38°56' W 075°10'0 0.0
2017-Oct-04 04:18N 38°56' W 075°10'0 0.1
2017-Oct-04 03:59N 38°56' W 075°10'0 0.0
2017-Oct-04 03:27N 38°56' W 075°10'0 0.1
2017-Oct-04 02:57N 38°56' W 075°10'0 0.1
2017-Oct-04 00:30N 38°56' W 075°10'0 0.0
2017-Oct-03 23:51N 38°56' W 075°10'0 0.1
2017-Oct-03 23:30N 38°56' W 075°10'0 0.0
2017-Oct-03 22:53N 38°56' W 075°10'0 0.1
2017-Oct-03 22:18N 38°56' W 075°10'0 0.0
2017-Oct-03 21:57N 38°56' W 075°10'0 0.0
2017-Oct-03 21:27N 38°56' W 075°10'0 0.0
2017-Oct-03 19:18N 38°56' W 075°10'0 0.3
2017-Oct-03 19:00N 38°56' W 075°10'0 0.2
2017-Oct-03 18:30N 38°56' W 075°10'0 0.1
2017-Oct-03 18:00N 38°56' W 075°10'0 0.0
2017-Oct-03 17:30N 38°56' W 075°10'0 0.0
2017-Oct-03 16:45N 38°56' W 075°10'0 0.0
2017-Oct-03 16:30N 38°56' W 075°10'0 0.0
2017-Oct-03 15:54N 38°56' W 075°10'0 0.0
2017-Oct-03 15:24N 38°56' W 075°10'0 0.1
2017-Oct-03 14:59N 38°56' W 075°10'0 0.3
2017-Oct-03 13:59N 38°56' W 075°10'0 0.0
2017-Oct-03 13:29N 38°56' W 075°10'0 0.0
2017-Oct-03 12:56N 38°56' W 075°10'0 0.0
2017-Oct-03 12:29N 38°56' W 075°10'0 0.0
2017-Oct-03 11:59N 38°56' W 075°10'0 0.0
2017-Oct-03 11:29N 38°56' W 075°10'0 0.0
2017-Oct-03 10:57N 38°56' W 075°10'0 0.0
2017-Oct-03 10:02N 38°56' W 075°10'0 0.0
2017-Oct-03 09:59N 38°56' W 075°10'0 0.0
2017-Oct-03 09:11N 38°56' W 075°10'0 0.0
2017-Oct-03 08:45N 38°56' W 075°10'0 0.0
2017-Oct-03 08:27N 38°56' W 075°10'0 0.1
2017-Oct-03 08:00N 38°56' W 075°10'0 0.1
2017-Oct-03 07:30N 38°56' W 075°10'0 0.2
2017-Oct-03 06:59N 38°56' W 075°10'0 0.2
2017-Oct-03 06:29N 38°56' W 075°10'0 0.1
2017-Oct-03 05:56N 38°56' W 075°10'0 0.1
2017-Oct-03 05:29N 38°56' W 075°10'0 0.0
2017-Oct-03 04:38N 38°56' W 075°10'0 0.0
2017-Oct-03 04:29N 38°56' W 075°10'0 0.0
2017-Oct-03 03:59N 38°56' W 075°10'0 0.0
2017-Oct-03 03:29N 38°56' W 075°10'0 0.0
2017-Oct-03 02:53N 38°56' W 075°10'0 0.0
2017-Oct-03 02:29N 38°56' W 075°10'0 0.1
2017-Oct-03 01:59N 38°56' W 075°10'0 0.3
2017-Oct-03 01:23N 38°56' W 075°10'0 0.0
2017-Oct-02 20:53N 38°56' W 075°10'0 0.0
2017-Oct-02 20:29N 38°56' W 075°10'0 0.2
2017-Oct-02 19:29N 38°56' W 075°10'0 0.4
2017-Oct-02 18:56N 38°56' W 075°10'0 0.1
2017-Oct-02 18:29N 38°56' W 075°10'0 0.1
2017-Oct-02 17:53N 38°56' W 075°10'0 0.0
2017-Oct-02 17:29N 38°56' W 075°10'0 0.0
2017-Oct-02 16:53N 38°56' W 075°10'0 0.0
2017-Oct-02 16:17N 38°56' W 075°10'0 0.0
2017-Oct-02 15:59N 38°56' W 075°10'0 0.0
2017-Oct-02 15:29N 38°56' W 075°10'0 0.0
2017-Oct-02 14:59N 38°56' W 075°10'0 0.0
2017-Oct-02 14:29N 38°56' W 075°10'0 0.0
2017-Oct-02 13:59N 38°56' W 075°10'0 0.0
2017-Oct-02 13:23N 38°56' W 075°10'0 0.0
2017-Oct-02 12:59N 38°56' W 075°10'0 0.1
2017-Oct-02 12:29N 38°56' W 075°10'0 0.2
2017-Oct-02 11:59N 38°56' W 075°10'0 0.2
2017-Oct-02 11:29N 38°56' W 075°10'0 0.1
2017-Oct-02 10:59N 38°56' W 075°10'0 0.1
2017-Oct-02 10:05N 38°56' W 075°10'0 0.0
2017-Oct-02 09:59N 38°56' W 075°10'0 0.0
2017-Oct-02 09:29N 38°56' W 075°10'0 0.0
2017-Oct-02 08:56N 38°56' W 075°10'0 0.0
2017-Oct-02 08:26N 38°56' W 075°10'0 0.1
2017-Oct-02 07:53N 38°56' W 075°10'0 0.3
2017-Oct-02 07:29N 38°56' W 075°10'0 0.3
2017-Oct-02 06:59N 38°56' W 075°10'0 0.0
2017-Oct-02 06:29N 38°56' W 075°10'0 0.1
2017-Oct-02 05:56N 38°56' W 075°10'0 0.1
2017-Oct-02 05:26N 38°56' W 075°10'0 0.0
2017-Oct-02 04:59N 38°56' W 075°10'0 0.0
2017-Oct-02 04:29N 38°56' W 075°10'0 0.0
2017-Oct-02 03:59N 38°56' W 075°10'0 0.0
2017-Oct-02 03:26N 38°56' W 075°10'0 0.0
2017-Oct-02 02:59N 38°56' W 075°10'0 0.1
2017-Oct-02 02:29N 38°56' W 075°10'0 0.0
2017-Oct-02 01:59N 38°56' W 075°10'0 0.1
2017-Oct-02 01:29N 38°56' W 075°10'0 0.0
2017-Oct-02 00:59N 38°56' W 075°10'0 0.0
2017-Oct-01 18:47N 38°56' W 075°10'0 0.3
2017-Oct-01 18:14N 38°56' W 075°10'0 0.3
2017-Oct-01 17:59N 38°56' W 075°10'0 0.1
2017-Oct-01 17:17N 38°56' W 075°10'0 0.0
2017-Oct-01 16:47N 38°56' W 075°10'0 0.0
2017-Oct-01 16:26N 38°56' W 075°10'0 0.0
2017-Oct-01 15:59N 38°56' W 075°10'0 0.0
2017-Oct-01 15:02N 38°56' W 075°10'0 0.1
2017-Oct-01 14:59N 38°56' W 075°10'0 0.0
2017-Oct-01 14:29N 38°56' W 075°10'0 0.0
2017-Oct-01 13:56N 38°56' W 075°10'0 0.1
2017-Oct-01 13:29N 38°56' W 075°10'0 0.0
2017-Oct-01 12:56N 38°56' W 075°10'0 0.0
2017-Oct-01 12:29N 38°56' W 075°10'0 0.1
2017-Oct-01 11:59N 38°56' W 075°10'0 0.1
2017-Oct-01 11:29N 38°56' W 075°10'0 0.2
2017-Oct-01 10:56N 38°56' W 075°10'0 0.2
2017-Oct-01 10:29N 38°56' W 075°10'0 0.2
2017-Oct-01 09:59N 38°56' W 075°10'0 0.0
2017-Oct-01 09:29N 38°56' W 075°10'0 0.1
2017-Oct-01 08:59N 38°56' W 075°10'0 0.1
2017-Oct-01 08:29N 38°56' W 075°10'0 0.1
2017-Oct-01 07:56N 38°56' W 075°10'0 0.0
2017-Oct-01 07:29N 38°56' W 075°10'0 0.1
2017-Oct-01 06:20N 38°56' W 075°10'0 0.2
2017-Oct-01 05:59N 38°56' W 075°10'0 0.1
2017-Oct-01 05:29N 38°56' W 075°10'0 0.1
2017-Oct-01 04:23N 38°56' W 075°10'0 0.0
2017-Oct-01 03:35N 38°56' W 075°10'0 0.0
2017-Oct-01 03:29N 38°56' W 075°10'0 0.1
2017-Oct-01 02:59N 38°56' W 075°10'  

Dump ship's entire track history